createdAt,value
2018-10-07T00:00:06.810Z,98937.00
2018-10-07T00:02:37.146Z,98931.00
2018-10-07T00:05:07.494Z,98939.00
2018-10-07T00:07:37.856Z,98940.00
2018-10-07T00:10:08.161Z,98942.00
2018-10-07T00:12:38.504Z,98943.00
2018-10-07T00:15:08.825Z,98948.00
2018-10-07T00:17:39.434Z,98951.00
2018-10-07T00:20:09.755Z,98952.00
2018-10-07T00:22:40.340Z,98955.00
2018-10-07T00:25:10.932Z,98954.00
2018-10-07T00:27:41.524Z,98958.00
2018-10-07T00:30:11.831Z,98955.00
2018-10-07T00:32:42.201Z,98957.00
2018-10-07T00:35:12.520Z,98958.00
2018-10-07T00:37:42.906Z,98960.00
2018-10-07T00:40:13.277Z,98951.00
2018-10-07T00:42:43.625Z,98955.00
2018-10-07T00:45:13.961Z,98954.00
2018-10-07T00:47:44.325Z,98956.00
2018-10-07T00:50:14.905Z,98957.00
2018-10-07T00:52:45.252Z,98955.00
2018-10-07T00:55:15.850Z,98957.00
2018-10-07T00:57:46.446Z,98959.00
2018-10-07T01:00:16.765Z,98958.00
2018-10-07T01:02:47.091Z,98962.00
2018-10-07T01:05:17.414Z,98964.00
2018-10-07T01:07:48.006Z,98966.00
2018-10-07T01:10:18.334Z,98968.00
2018-10-07T01:12:48.665Z,98972.00
2018-10-07T01:15:18.997Z,98972.00
2018-10-07T01:17:49.341Z,98974.00
2018-10-07T01:20:20.178Z,98974.00
2018-10-07T01:22:50.525Z,98982.00
2018-10-07T01:25:20.852Z,98981.00
2018-10-07T01:27:51.441Z,98980.00
2018-10-07T01:30:22.840Z,98983.00
2018-10-07T01:32:55.237Z,98983.00
2018-10-07T01:35:25.913Z,98982.00
2018-10-07T01:37:56.513Z,98979.00
2018-10-07T01:40:26.863Z,98984.00
2018-10-07T01:42:57.284Z,98984.00
2018-10-07T01:45:27.629Z,98986.00
2018-10-07T01:47:58.125Z,98987.00
2018-10-07T01:50:28.692Z,98986.00
2018-10-07T01:52:59.292Z,98981.00
2018-10-07T01:55:29.868Z,98984.00
2018-10-07T01:58:00.516Z,98983.00
2018-10-07T02:00:30.849Z,98988.00
2018-10-07T02:03:01.205Z,98988.00
2018-10-07T02:05:31.813Z,98992.00
2018-10-07T02:08:02.273Z,98990.00
2018-10-07T02:10:32.596Z,98992.00
2018-10-07T02:13:02.926Z,98992.00
2018-10-07T02:15:33.250Z,98990.00
2018-10-07T02:18:03.703Z,98996.00
2018-10-07T02:20:34.041Z,98998.00
2018-10-07T02:23:04.398Z,99008.00
2018-10-07T02:25:34.953Z,99013.00
2018-10-07T02:28:06.009Z,99018.00
2018-10-07T02:30:36.564Z,99025.00
2018-10-07T02:33:06.953Z,99021.00
2018-10-07T02:35:37.303Z,99017.00
2018-10-07T02:38:07.920Z,99022.00
2018-10-07T02:40:40.277Z,99020.00
2018-10-07T02:43:11.545Z,99015.00
2018-10-07T02:45:41.861Z,99017.00
2018-10-07T02:48:12.218Z,99014.00
2018-10-07T02:50:42.537Z,99016.00
2018-10-07T02:53:12.948Z,99026.00
2018-10-07T02:55:43.418Z,99026.00
2018-10-07T02:58:13.765Z,99026.00
2018-10-07T03:00:44.069Z,99031.00
2018-10-07T03:03:14.403Z,99035.00
2018-10-07T03:05:44.956Z,99036.00
2018-10-07T03:08:15.313Z,99036.00
2018-10-07T03:10:45.874Z,99033.00
2018-10-07T03:13:16.467Z,99034.00
2018-10-07T03:15:47.018Z,99031.00
2018-10-07T03:18:17.593Z,99038.00
2018-10-07T03:20:47.904Z,99033.00
2018-10-07T03:23:18.262Z,99041.00
2018-10-07T03:25:48.577Z,99037.00
2018-10-07T03:28:18.949Z,99033.00
2018-10-07T03:30:49.717Z,99036.00
2018-10-07T03:33:20.088Z,99037.00
2018-10-07T03:35:50.655Z,99036.00
2018-10-07T03:38:21.034Z,99036.00
2018-10-07T03:40:51.421Z,99039.00
2018-10-07T03:43:21.785Z,99041.00
2018-10-07T03:45:52.101Z,99038.00
2018-10-07T03:48:22.556Z,99037.00
2018-10-07T03:50:53.121Z,99049.00
2018-10-07T03:53:23.989Z,99044.00
2018-10-07T03:55:54.674Z,99047.00
2018-10-07T03:58:25.033Z,99054.00
2018-10-07T04:00:55.383Z,99053.00
2018-10-07T04:03:25.976Z,99055.00
2018-10-07T04:05:56.565Z,99063.00
2018-10-07T04:08:27.169Z,99068.00
2018-10-07T04:10:57.489Z,99074.00
2018-10-07T04:13:27.840Z,99073.00
2018-10-07T04:15:58.172Z,99076.00
2018-10-07T04:18:28.752Z,99075.00
2018-10-07T04:20:59.064Z,99078.00
2018-10-07T04:23:29.649Z,99081.00
2018-10-07T04:25:59.982Z,99082.00
2018-10-07T04:28:30.306Z,99083.00
2018-10-07T04:31:00.637Z,99078.00
2018-10-07T04:33:30.979Z,99085.00
2018-10-07T04:36:01.301Z,99083.00
2018-10-07T04:38:31.628Z,99082.00
2018-10-07T04:41:02.208Z,99083.00
2018-10-07T04:43:32.796Z,99094.00
2018-10-07T04:46:03.149Z,99093.00
2018-10-07T04:48:33.485Z,99100.00
2018-10-07T04:51:04.103Z,99105.00
2018-10-07T04:53:34.433Z,99105.00
2018-10-07T04:56:04.757Z,99107.00
2018-10-07T04:58:35.085Z,99111.00
2018-10-07T05:01:05.441Z,99114.00
2018-10-07T05:03:36.015Z,99121.00
2018-10-07T05:06:06.448Z,99131.00
2018-10-07T05:08:36.774Z,99140.00
2018-10-07T05:11:07.113Z,99146.00
2018-10-07T05:13:50.142Z,99144.00
2018-10-07T05:16:37.404Z,99145.00
2018-10-07T05:19:07.964Z,99159.00
2018-10-07T05:21:38.868Z,99166.00
2018-10-07T05:24:09.474Z,99169.00
2018-10-07T05:26:39.890Z,99175.00
2018-10-07T05:29:10.217Z,99180.00
2018-10-07T05:31:40.519Z,99187.00
2018-10-07T05:34:10.868Z,99191.00
2018-10-07T05:36:41.189Z,99195.00
2018-10-07T05:39:12.510Z,99197.00
2018-10-07T05:41:42.850Z,99197.00
2018-10-07T05:44:13.220Z,99197.00
2018-10-07T05:46:43.949Z,99197.00
2018-10-07T05:49:14.289Z,99198.00
2018-10-07T05:51:44.604Z,99196.00
2018-10-07T05:54:14.937Z,99192.00
2018-10-07T05:56:45.493Z,99195.00
2018-10-07T05:59:16.069Z,99195.00
2018-10-07T06:01:46.419Z,99195.00
2018-10-07T06:04:26.339Z,99202.00
2018-10-07T06:06:59.744Z,99203.00
2018-10-07T06:09:33.345Z,99210.00
2018-10-07T06:12:03.656Z,99209.00
2018-10-07T06:14:51.019Z,99217.00
2018-10-07T06:17:21.462Z,99221.00
2018-10-07T06:19:52.002Z,99216.00
2018-10-07T06:22:22.596Z,99220.00
2018-10-07T06:24:53.165Z,99222.00
2018-10-07T06:27:23.468Z,99229.00
2018-10-07T06:29:53.813Z,99237.00
2018-10-07T06:32:24.315Z,99242.00
2018-10-07T06:34:54.877Z,99246.00
2018-10-07T06:37:25.513Z,99249.00
2018-10-07T06:39:56.139Z,99250.00
2018-10-07T06:42:26.857Z,99254.00
2018-10-07T06:44:57.177Z,99253.00
2018-10-07T06:47:27.490Z,99259.00
2018-10-07T06:49:58.065Z,99261.00
2018-10-07T06:52:28.376Z,99262.00
2018-10-07T06:54:58.955Z,99264.00
2018-10-07T06:57:29.504Z,99266.00
2018-10-07T07:00:00.372Z,99266.00
2018-10-07T07:02:30.677Z,99269.00
2018-10-07T07:05:01.003Z,99267.00
2018-10-07T07:07:31.309Z,99284.00
2018-10-07T07:10:01.877Z,99279.00
2018-10-07T07:12:32.199Z,99290.00
2018-10-07T07:15:02.757Z,99296.00
2018-10-07T07:17:33.330Z,99306.00
2018-10-07T07:20:03.647Z,99307.00
2018-10-07T07:22:34.480Z,99311.00
2018-10-07T07:25:05.065Z,99305.00
2018-10-07T07:27:35.384Z,99312.00
2018-10-07T07:30:06.226Z,99314.00
2018-10-07T07:32:36.805Z,99324.00
2018-10-07T07:35:07.358Z,99325.00
2018-10-07T07:37:37.933Z,99328.00
2018-10-07T07:40:13.221Z,99321.00
2018-10-07T07:42:46.164Z,99321.00
2018-10-07T07:45:17.479Z,99322.00
2018-10-07T07:47:48.069Z,99326.00
2018-10-07T07:50:18.388Z,99329.00
2018-10-07T07:52:48.978Z,99329.00
2018-10-07T07:55:19.302Z,99329.00
2018-10-07T07:57:49.838Z,99336.00
2018-10-07T08:00:20.174Z,99341.00
2018-10-07T08:02:51.540Z,99340.00
2018-10-07T08:05:22.097Z,99341.00
2018-10-07T08:07:52.801Z,99348.00
2018-10-07T08:10:23.133Z,99346.00
2018-10-07T08:12:53.517Z,99346.00
2018-10-07T08:15:24.129Z,99351.00
2018-10-07T08:17:54.486Z,99356.00
2018-10-07T08:20:24.977Z,99357.00
2018-10-07T08:22:55.304Z,99363.00
2018-10-07T08:25:25.883Z,99359.00
2018-10-07T08:27:56.202Z,99364.00
2018-10-07T08:30:27.009Z,99367.00
2018-10-07T08:32:58.053Z,99361.00
2018-10-07T08:35:29.673Z,99366.00
2018-10-07T08:38:00.009Z,99365.00
2018-10-07T08:40:31.433Z,99368.00
2018-10-07T08:43:01.768Z,99371.00
2018-10-07T08:45:32.064Z,99364.00
2018-10-07T08:48:02.437Z,99364.00
2018-10-07T08:50:32.764Z,99368.00
2018-10-07T08:53:03.101Z,99361.00
2018-10-07T08:55:33.413Z,99358.00
2018-10-07T08:58:03.774Z,99353.00
2018-10-07T09:00:34.093Z,99355.00
2018-10-07T09:03:04.432Z,99360.00
2018-10-07T09:05:34.985Z,99367.00
2018-10-07T09:08:05.329Z,99371.00
2018-10-07T09:10:35.953Z,99371.00
2018-10-07T09:13:06.360Z,99371.00
2018-10-07T09:15:36.656Z,99368.00
2018-10-07T09:18:07.313Z,99365.00
2018-10-07T09:20:37.636Z,99366.00
2018-10-07T09:23:08.060Z,99374.00
2018-10-07T09:25:38.905Z,99376.00
2018-10-07T09:28:09.570Z,99373.00
2018-10-07T09:30:40.233Z,99379.00
2018-10-07T09:33:10.561Z,99380.00
2018-10-07T09:35:40.907Z,99382.00
2018-10-07T09:38:12.497Z,99381.00
2018-10-07T09:40:43.400Z,99383.00
2018-10-07T09:43:13.735Z,99379.00
2018-10-07T09:45:44.057Z,99384.00
2018-10-07T09:48:14.393Z,99386.00
2018-10-07T09:50:44.721Z,99390.00
2018-10-07T09:53:15.072Z,99392.00
2018-10-07T09:55:45.642Z,99399.00
2018-10-07T09:58:16.215Z,99396.00
2018-10-07T10:00:47.546Z,99407.00
2018-10-07T10:03:19.987Z,99403.00
2018-10-07T10:05:50.300Z,99409.00
2018-10-07T10:08:20.653Z,99414.00
2018-10-07T10:10:50.988Z,99413.00
2018-10-07T10:13:21.293Z,99415.00
2018-10-07T10:15:51.869Z,99419.00
2018-10-07T10:18:32.906Z,99419.00
2018-10-07T10:21:12.708Z,99418.00
2018-10-07T10:24:57.387Z,99422.00
2018-10-07T10:27:46.396Z,99429.00
2018-10-07T10:30:30.972Z,99428.00
2018-10-07T10:33:20.854Z,99425.00
2018-10-07T10:37:01.131Z,99427.00
2018-10-07T10:39:52.809Z,99438.00
2018-10-07T10:43:48.484Z,99441.00
2018-10-07T10:46:29.753Z,99451.00
2018-10-07T10:49:12.421Z,99453.00
2018-10-07T10:52:53.244Z,99451.00
2018-10-07T10:55:33.318Z,99452.00
2018-10-07T10:58:08.892Z,99454.00
2018-10-07T11:00:59.144Z,99454.00
2018-10-07T11:04:42.219Z,99461.00
2018-10-07T11:08:00.721Z,99454.00
2018-10-07T11:10:41.720Z,99455.00
2018-10-07T11:13:25.157Z,99459.00
2018-10-07T11:16:16.651Z,99456.00
2018-10-07T11:23:05.585Z,99461.00
2018-10-07T11:26:00.971Z,99474.00
2018-10-07T11:28:44.278Z,99476.00
2018-10-07T11:31:40.919Z,99484.00
2018-10-07T11:34:34.449Z,99485.00
2018-10-07T11:38:19.476Z,99485.00
2018-10-07T11:43:14.545Z,99480.00
2018-10-07T11:45:57.272Z,99479.00
2018-10-07T11:48:47.065Z,99476.00
2018-10-07T11:53:41.484Z,99479.00
2018-10-07T11:56:11.862Z,99466.00
2018-10-07T11:58:42.200Z,99473.00
2018-10-07T12:01:12.840Z,99472.00
2018-10-07T12:03:43.160Z,99474.00
2018-10-07T12:06:13.534Z,99480.00
2018-10-07T12:08:43.876Z,99475.00
2018-10-07T12:11:14.256Z,99481.00
2018-10-07T12:13:44.570Z,99466.00
2018-10-07T12:16:14.956Z,99464.00
2018-10-07T12:18:45.472Z,99456.00
2018-10-07T12:21:15.846Z,99458.00
2018-10-07T12:23:46.413Z,99464.00
2018-10-07T12:26:17.025Z,99462.00
2018-10-07T12:28:47.388Z,99467.00
2018-10-07T12:31:17.930Z,99470.00
2018-10-07T12:33:51.305Z,99470.00
2018-10-07T12:36:21.656Z,99466.00
2018-10-07T12:38:52.028Z,99470.00
2018-10-07T12:41:22.352Z,99471.00
2018-10-07T12:43:52.961Z,99479.00
2018-10-07T12:46:23.536Z,99477.00
2018-10-07T12:48:53.880Z,99475.00
2018-10-07T12:51:24.338Z,99476.00
2018-10-07T12:53:54.740Z,99473.00
2018-10-07T12:56:25.213Z,99479.00
2018-10-07T12:58:55.577Z,99484.00
2018-10-07T13:01:25.924Z,99486.00
2018-10-07T13:03:56.306Z,99484.00
2018-10-07T13:06:26.636Z,99483.00
2018-10-07T13:08:57.013Z,99482.00
2018-10-07T13:11:27.354Z,99487.00
2018-10-07T13:13:57.729Z,99495.00
2018-10-07T13:16:28.093Z,99492.00
2018-10-07T13:18:58.713Z,99493.00
2018-10-07T13:21:29.054Z,99492.00
2018-10-07T13:23:59.408Z,99493.00
2018-10-07T13:26:30.191Z,99494.00
2018-10-07T13:29:01.031Z,99496.00
2018-10-07T13:31:31.357Z,99496.00
2018-10-07T13:34:01.722Z,99504.00
2018-10-07T13:36:32.064Z,99510.00
2018-10-07T13:39:02.709Z,99508.00
2018-10-07T13:41:33.065Z,99511.00
2018-10-07T13:44:03.677Z,99509.00
2018-10-07T13:46:34.013Z,99509.00
2018-10-07T13:49:04.456Z,99511.00
2018-10-07T13:51:35.105Z,99515.00
2018-10-07T13:54:05.748Z,99510.00
2018-10-07T13:56:36.736Z,99519.00
2018-10-07T13:59:07.394Z,99518.00
2018-10-07T14:01:37.734Z,99511.00
2018-10-07T14:04:08.106Z,99513.00
2018-10-07T14:06:38.426Z,99517.00
2018-10-07T14:09:09.711Z,99521.00
2018-10-07T14:11:40.131Z,99521.00
2018-10-07T14:14:10.747Z,99528.00
2018-10-07T14:16:41.097Z,99530.00
2018-10-07T14:19:17.833Z,99530.00
2018-10-07T14:21:48.178Z,99528.00
2018-10-07T14:24:18.541Z,99538.00
2018-10-07T14:26:48.864Z,99537.00
2018-10-07T14:29:19.249Z,99543.00
2018-10-07T14:31:49.574Z,99544.00
2018-10-07T14:34:19.972Z,99547.00
2018-10-07T14:36:50.577Z,99547.00
2018-10-07T14:39:21.204Z,99551.00
2018-10-07T14:41:52.061Z,99557.00
2018-10-07T14:44:22.416Z,99558.00
2018-10-07T14:46:52.772Z,99556.00
2018-10-07T14:49:23.181Z,99566.00
2018-10-07T14:51:53.693Z,99563.00
2018-10-07T14:54:24.052Z,99562.00
2018-10-07T14:56:54.384Z,99565.00
2018-10-07T14:59:24.709Z,99571.00
2018-10-07T15:01:55.310Z,99572.00
2018-10-07T15:04:25.656Z,99574.00
2018-10-07T15:06:56.060Z,99575.00
2018-10-07T15:09:26.464Z,99579.00
2018-10-07T15:11:57.057Z,99583.00
2018-10-07T15:14:27.428Z,99577.00
2018-10-07T15:16:57.785Z,99579.00
2018-10-07T15:19:28.116Z,99585.00
2018-10-07T15:21:58.456Z,99589.00
2018-10-07T15:24:29.020Z,99584.00
2018-10-07T15:26:59.353Z,99600.00
2018-10-07T15:29:30.013Z,99603.00
2018-10-07T15:32:00.508Z,99603.00
2018-10-07T15:34:30.874Z,99606.00
2018-10-07T15:37:01.237Z,99614.00
2018-10-07T15:39:31.553Z,99606.00
2018-10-07T15:42:01.959Z,99615.00
2018-10-07T15:44:32.291Z,99623.00
2018-10-07T15:47:02.931Z,99628.00
2018-10-07T15:49:33.261Z,99617.00
2018-10-07T15:52:03.611Z,99614.00
2018-10-07T15:54:33.969Z,99620.00
2018-10-07T15:57:04.553Z,99620.00
2018-10-07T15:59:34.869Z,99623.00
2018-10-07T16:02:05.494Z,99623.00
2018-10-07T16:04:36.097Z,99624.00
2018-10-07T16:07:06.438Z,99626.00
2018-10-07T16:09:37.065Z,99625.00
2018-10-07T16:12:07.876Z,99627.00
2018-10-07T16:14:38.490Z,99630.00
2018-10-07T16:17:09.113Z,99631.00
2018-10-07T16:19:39.432Z,99634.00
2018-10-07T16:22:09.839Z,99633.00
2018-10-07T16:24:40.523Z,99638.00
2018-10-07T16:27:11.376Z,99639.00
2018-10-07T16:29:42.015Z,99637.00
2018-10-07T16:32:12.535Z,99640.00
2018-10-07T16:34:43.025Z,99639.00
2018-10-07T16:37:13.403Z,99643.00
2018-10-07T16:39:44.395Z,99642.00
2018-10-07T16:42:14.810Z,99641.00
2018-10-07T16:44:45.444Z,99643.00
2018-10-07T16:47:15.817Z,99643.00
2018-10-07T16:49:46.152Z,99650.00
2018-10-07T16:52:16.529Z,99658.00
2018-10-07T16:54:47.154Z,99661.00
2018-10-07T16:57:17.773Z,99672.00
2018-10-07T16:59:48.125Z,99678.00
2018-10-07T17:02:18.518Z,99681.00
2018-10-07T17:04:48.963Z,99687.00
2018-10-07T17:07:19.385Z,99690.00
2018-10-07T17:09:50.002Z,99693.00
2018-10-07T17:12:20.637Z,99700.00
2018-10-07T17:14:51.241Z,99703.00
2018-10-07T17:17:21.862Z,99713.00
2018-10-07T17:19:52.185Z,99730.00
2018-10-07T17:22:22.595Z,99741.00
2018-10-07T17:24:52.919Z,99749.00
2018-10-07T17:27:23.493Z,99757.00
2018-10-07T17:29:53.832Z,99761.00
2018-10-07T17:32:24.424Z,99758.00
2018-10-07T17:34:54.973Z,99777.00
2018-10-07T17:37:25.574Z,99772.00
2018-10-07T17:39:55.900Z,99777.00
2018-10-07T17:42:26.528Z,99786.00
2018-10-07T17:44:57.256Z,99788.00
2018-10-07T17:47:27.583Z,99789.00
2018-10-07T17:49:57.881Z,99791.00
2018-10-07T17:52:28.212Z,99796.00
2018-10-07T17:54:58.618Z,99796.00
2018-10-07T17:57:29.098Z,99803.00
2018-10-07T17:59:59.404Z,99808.00
2018-10-07T18:02:29.719Z,99809.00
2018-10-07T18:05:00.049Z,99811.00
2018-10-07T18:07:30.364Z,99813.00
2018-10-07T18:10:00.701Z,99814.00
2018-10-07T18:12:31.278Z,99815.00
2018-10-07T18:15:01.912Z,99817.00
2018-10-07T18:17:32.377Z,99817.00
2018-10-07T18:20:02.949Z,99822.00
2018-10-07T18:22:33.510Z,99820.00
2018-10-07T18:25:03.864Z,99826.00
2018-10-07T18:27:34.516Z,99836.00
2018-10-07T18:30:04.860Z,99836.00
2018-10-07T18:32:35.417Z,99841.00
2018-10-07T18:35:05.774Z,99848.00
2018-10-07T18:37:36.333Z,99850.00
2018-10-07T18:40:06.708Z,99844.00
2018-10-07T18:42:37.180Z,99847.00
2018-10-07T18:45:07.516Z,99852.00
2018-10-07T18:47:37.860Z,99854.00
2018-10-07T18:50:08.443Z,99860.00
2018-10-07T18:52:38.752Z,99858.00
2018-10-07T18:55:09.089Z,99858.00
2018-10-07T18:57:39.400Z,99860.00
2018-10-07T19:00:11.173Z,99857.00
2018-10-07T19:02:41.604Z,99858.00
2018-10-07T19:05:12.377Z,99859.00
2018-10-07T19:07:42.694Z,99865.00
2018-10-07T19:10:13.265Z,99878.00
2018-10-07T19:12:43.588Z,99875.00
2018-10-07T19:15:13.937Z,99880.00
2018-10-07T19:17:45.925Z,99880.00
2018-10-07T19:20:16.346Z,99880.00
2018-10-07T19:22:46.917Z,99885.00
2018-10-07T19:25:17.353Z,99882.00
2018-10-07T19:27:47.701Z,99884.00
2018-10-07T19:30:18.280Z,99888.00
2018-10-07T19:32:48.606Z,99889.00
2018-10-07T19:35:18.945Z,99891.00
2018-10-07T19:37:49.256Z,99892.00
2018-10-07T19:40:19.860Z,99891.00
2018-10-07T19:42:50.485Z,99882.00
2018-10-07T19:45:21.238Z,99883.00
2018-10-07T19:47:51.794Z,99884.00
2018-10-07T19:50:22.144Z,99888.00
2018-10-07T19:52:52.511Z,99889.00
2018-10-07T19:55:23.092Z,99884.00
2018-10-07T19:57:53.405Z,99888.00
2018-10-07T20:00:23.743Z,99890.00
2018-10-07T20:02:54.051Z,99895.00
2018-10-07T20:05:24.633Z,99888.00
2018-10-07T20:07:54.949Z,99892.00
2018-10-07T20:10:25.517Z,99894.00
2018-10-07T20:12:56.092Z,99896.00
2018-10-07T20:15:26.675Z,99891.00
2018-10-07T20:17:56.984Z,99893.00
2018-10-07T20:20:27.340Z,99893.00
2018-10-07T20:22:57.655Z,99903.00
2018-10-07T20:25:28.241Z,99895.00
2018-10-07T20:27:58.568Z,99899.00
2018-10-07T20:30:28.901Z,99902.00
2018-10-07T20:32:59.493Z,99909.00
2018-10-07T20:35:30.057Z,99917.00
2018-10-07T20:38:00.397Z,99921.00
2018-10-07T20:40:31.050Z,99925.00
2018-10-07T20:43:01.556Z,99922.00
2018-10-07T20:45:31.869Z,99931.00
2018-10-07T20:48:02.261Z,99933.00
2018-10-07T20:50:32.586Z,99932.00
2018-10-07T20:53:02.945Z,99935.00
2018-10-07T20:55:33.253Z,99929.00
2018-10-07T20:58:04.145Z,99926.00
2018-10-07T21:00:34.463Z,99925.00
2018-10-07T21:03:05.057Z,99933.00
2018-10-07T21:05:35.624Z,99929.00
2018-10-07T21:08:06.424Z,99924.00
2018-10-07T21:10:36.969Z,99926.00
2018-10-07T21:13:07.313Z,99930.00
2018-10-07T21:15:37.613Z,99932.00
2018-10-07T21:18:08.293Z,99933.00
2018-10-07T21:20:38.597Z,99932.00
2018-10-07T21:23:09.160Z,99935.00
2018-10-07T21:25:39.728Z,99936.00
2018-10-07T21:28:10.319Z,99936.00
2018-10-07T21:30:41.062Z,99944.00
2018-10-07T21:33:11.650Z,99940.00
2018-10-07T21:35:42.201Z,99947.00
2018-10-07T21:38:12.796Z,99946.00
2018-10-07T21:40:43.470Z,99951.00
2018-10-07T21:43:14.045Z,99948.00
2018-10-07T21:45:44.356Z,99954.00
2018-10-07T21:48:14.684Z,99956.00
2018-10-07T21:50:44.992Z,99958.00
2018-10-07T21:53:15.320Z,99956.00
2018-10-07T21:55:45.633Z,99952.00
2018-10-07T21:58:16.213Z,99953.00
2018-10-07T22:00:46.782Z,99951.00
2018-10-07T22:03:17.102Z,99954.00
2018-10-07T22:05:47.404Z,99956.00
2018-10-07T22:08:18.745Z,99957.00
2018-10-07T22:10:49.059Z,99949.00
2018-10-07T22:13:19.645Z,99955.00
2018-10-07T22:15:50.201Z,99952.00
2018-10-07T22:18:21.020Z,99945.00
2018-10-07T22:20:51.560Z,99951.00
2018-10-07T22:23:22.129Z,99957.00
2018-10-07T22:25:52.728Z,99957.00
2018-10-07T22:28:23.064Z,99955.00
2018-10-07T22:30:53.612Z,99956.00
2018-10-07T22:33:24.188Z,99965.00
2018-10-07T22:35:54.503Z,99963.00
2018-10-07T22:38:25.088Z,99962.00
2018-10-07T22:40:55.660Z,99966.00
2018-10-07T22:43:26.000Z,99965.00
2018-10-07T22:45:56.553Z,99968.00
2018-10-07T22:48:26.902Z,99962.00
2018-10-07T22:50:57.201Z,99958.00
2018-10-07T22:53:27.777Z,99967.00
2018-10-07T22:55:58.085Z,99964.00
2018-10-07T22:58:28.664Z,99958.00
2018-10-07T23:00:58.982Z,99956.00
2018-10-07T23:03:29.316Z,99960.00
2018-10-07T23:05:59.870Z,99955.00
2018-10-07T23:08:30.224Z,99958.00
2018-10-07T23:11:00.773Z,99958.00
2018-10-07T23:13:31.356Z,99959.00
2018-10-07T23:16:01.914Z,99959.00
2018-10-07T23:18:32.735Z,99957.00
2018-10-07T23:21:03.052Z,99955.00
2018-10-07T23:23:33.665Z,99963.00
2018-10-07T23:26:04.228Z,99957.00
2018-10-07T23:28:34.839Z,99956.00
2018-10-07T23:31:05.580Z,99952.00
2018-10-07T23:33:36.193Z,99956.00
2018-10-07T23:36:06.540Z,99948.00
2018-10-07T23:38:36.886Z,99949.00
2018-10-07T23:41:07.645Z,99948.00
2018-10-07T23:43:37.989Z,99947.00
2018-10-07T23:46:08.333Z,99950.00
2018-10-07T23:48:38.897Z,99953.00
2018-10-07T23:51:09.476Z,99946.00
2018-10-07T23:53:40.016Z,99948.00
2018-10-07T23:56:10.349Z,99953.00
2018-10-07T23:58:40.980Z,99953.00
